CST,Max TemperatureF,Mean TemperatureF,Min TemperatureF,Max Dew PointF,MeanDew PointF,Min DewpointF,Max Humidity, Mean Humidity, Min Humidity, Max Sea Level PressureIn, Mean Sea Level PressureIn, Min Sea Level PressureIn, Max VisibilityMiles, Mean VisibilityMiles, Min VisibilityMiles, Max Wind SpeedMPH, Mean Wind SpeedMPH, Max Gust SpeedMPH,PrecipitationIn, CloudCover, Events, WindDirDegrees
2014-2-1,22,10,-1,16,9,-5,93,78,58,30.24,30.03,29.84,10,10,5,20,7,25,0.01,2,,338
2014-2-2,27,10,-8,16,3,-13,92,79,63,30.24,30.18,30.12,10,10,10,16,6,22,0.00,0,,252
2014-2-3,25,11,-3,20,10,-8,90,81,66,30.12,30.07,30.01,10,10,7,12,3,,0.00,6,,111
2014-2-4,23,13,3,19,9,-2,89,80,75,30.43,30.19,30.09,10,6,0,26,12,32,0.00,8,Snow,30
2014-2-5,8,-2,-13,-2,-9,-19,80,70,54,30.60,30.54,30.43,10,9,3,21,11,29,0.00,1,Snow,334
2014-2-6,7,-4,-16,0,-10,-22,79,71,54,30.54,30.41,30.23,10,10,10,10,6,,0.00,5,,248
2014-2-7,13,8,4,8,4,-1,86,79,73,30.22,30.07,29.92,10,9,4,15,10,,0.00,6,Snow,187
2014-2-8,26,16,6,18,13,3,91,78,65,30.18,29.98,29.88,10,9,0,15,7,24,0.01,5,Snow,335
2014-2-9,18,14,10,15,8,5,91,79,70,30.34,30.25,30.18,10,7,1,14,7,,0.02,8,Snow,29
2014-2-10,15,12,10,10,7,4,80,77,71,30.35,30.31,30.25,10,9,4,12,5,,0.00,8,Snow,155
2014-2-11,33,24,14,28,19,9,90,83,76,30.28,30.09,29.93,10,10,10,20,10,26,0.00,5,,187
2014-2-12,35,30,24,28,25,22,92,79,70,30.13,29.98,29.75,10,10,7,28,11,33,0.00,3,,271
2014-2-13,53,38,24,34,29,21,88,70,45,29.85,29.74,29.60,10,10,10,24,10,29,0.00,1,,258
2014-2-14,48,40,31,34,29,27,86,68,45,29.98,29.90,29.68,10,10,10,23,15,30,0.00,2,,323
2014-2-15,54,40,26,37,29,23,89,70,31,30.08,29.90,29.75,10,10,10,30,12,37,0.00,4,Rain,296
2014-2-16,55,40,24,34,29,22,92,69,40,30.08,29.87,29.68,10,10,10,28,8,34,0.00,1,,165
2014-2-17,57,46,34,36,25,15,87,50,21,30.02,29.91,29.73,10,10,10,29,13,40,0.00,1,,270
2014-2-18,63,44,24,27,21,16,82,47,20,30.00,29.80,29.66,10,10,10,36,11,45,0.00,0,,297
2014-2-19,58,39,20,25,21,17,87,54,25,29.98,29.75,29.52,10,10,10,25,8,31,0.00,0,,174
2014-2-20,41,33,25,32,25,16,95,71,40,29.86,29.73,29.56,10,9,1,33,16,44,0.04,4,Snow,319
2014-2-21,50,34,18,23,18,13,87,52,23,29.85,29.80,29.78,10,10,10,32,10,38,0.00,2,,281
2014-2-22,42,32,22,27,22,19,91,68,46,30.14,29.97,29.85,10,9,2,16,9,21,0.00,4,Snow,18
2014-2-23,26,22,19,24,19,16,91,85,79,30.30,30.24,30.14,10,6,0,12,7,,0.04,8,Snow,75
2014-2-24,30,21,12,22,17,6,92,76,64,30.37,30.18,30.03,10,10,10,29,8,34,0.00,6,,121
2014-2-25,16,10,1,11,5,-4,82,73,63,30.45,30.36,30.29,10,9,1,20,11,25,0.00,5,Snow,1
2014-2-26,30,12,-7,18,5,-12,86,74,48,30.43,30.12,29.96,10,10,3,20,7,25,0.00,0,,277
2014-2-27,26,16,6,17,11,3,87,75,61,30.00,29.88,29.68,10,10,10,17,9,22,0.00,0,,125
2014-2-28,35,26,17,25,17,9,90,73,64,30.12,29.81,29.61,10,10,10,24,9,29,0.00,6,,20